La Junta, Colorado
Current Conditions -  °F | °C
As of 3:53 PM on Wednesday 22 Oct 2014 (Local Time) from KLHX Reporting Station
Clear Clear  
Wind Chill: 74°   Ceiling: Unl
Heat Index: 74°   Visibility: 10mi
Dew Point: 42°   Wind: 3mph
Humidity: 32%   Direction: NA
Pressure: 30.02"   Gusts: NA
Location:  37.99°N, 103.54°W
Report Text: KLHX 222153Z AUTO VRB03KT 10SM CLR 23/06 A3002 RMK AO2 SLP121 T02330056
Loading
Personal Weather Stations






























Interactive Weather Map
Tropical Storm Tracking
New forecast layout! Learn more

10-Day Weather Forecast

Advertisements
Track Severe Weather on mobile